createdAt,value
2023-08-04T00:00:37.584Z,23.60
2023-08-04T00:03:25.490Z,23.60
2023-08-04T00:05:53.436Z,23.40
2023-08-04T00:08:21.494Z,23.24
2023-08-04T00:10:49.504Z,23.20
2023-08-04T00:13:17.436Z,23.10
2023-08-04T00:15:45.368Z,23.10
2023-08-04T00:18:13.191Z,23.10
2023-08-04T00:20:41.246Z,23.08
2023-08-04T00:23:09.242Z,23.10
2023-08-04T00:25:37.109Z,23.00
2023-08-04T00:28:05.250Z,22.88
2023-08-04T00:30:33.250Z,22.80
2023-08-04T00:33:02.572Z,22.70
2023-08-04T00:35:30.656Z,22.70
2023-08-04T00:37:58.711Z,22.70
2023-08-04T00:40:26.641Z,22.60
2023-08-04T00:42:54.592Z,22.60
2023-08-04T00:45:23.947Z,22.60
2023-08-04T00:47:52.607Z,22.70
2023-08-04T00:50:20.682Z,22.70
2023-08-04T00:52:48.464Z,22.72
2023-08-04T00:55:16.371Z,22.70
2023-08-04T00:57:44.443Z,22.80
2023-08-04T01:00:12.752Z,22.90
2023-08-04T01:02:40.918Z,22.88
2023-08-04T01:05:09.327Z,22.84
2023-08-04T01:07:52.318Z,22.80
2023-08-04T01:10:32.754Z,22.80
2023-08-04T01:13:07.880Z,22.54
2023-08-04T01:15:36.295Z,22.60
2023-08-04T01:18:04.423Z,22.50
2023-08-04T01:20:32.794Z,22.38
2023-08-04T01:23:00.912Z,22.22
2023-08-04T01:25:34.687Z,22.20
2023-08-04T01:28:09.575Z,22.10
2023-08-04T01:30:37.576Z,22.10
2023-08-04T01:33:05.581Z,22.10
2023-08-04T01:35:33.783Z,22.10
2023-08-04T01:38:01.629Z,22.20
2023-08-04T01:40:29.615Z,22.20
2023-08-04T01:42:57.780Z,22.10
2023-08-04T01:45:25.715Z,22.10
2023-08-04T01:47:53.639Z,22.20
2023-08-04T01:50:21.536Z,22.28
2023-08-04T01:52:49.521Z,22.30
2023-08-04T01:55:18.730Z,22.30
2023-08-04T01:57:46.545Z,22.40
2023-08-04T02:00:14.763Z,22.50
2023-08-04T02:02:42.866Z,22.48
2023-08-04T02:05:11.544Z,22.40
2023-08-04T02:07:39.473Z,22.40
2023-08-04T02:10:08.235Z,22.30
2023-08-04T02:12:36.151Z,22.30
2023-08-04T02:15:05.678Z,22.30
2023-08-04T02:17:35.919Z,22.30
2023-08-04T02:20:06.627Z,22.30
2023-08-04T02:22:34.590Z,22.24
2023-08-04T02:25:02.477Z,22.20
2023-08-04T02:27:30.553Z,22.10
2023-08-04T02:29:58.489Z,22.00
2023-08-04T02:32:26.438Z,21.90
2023-08-04T02:34:54.395Z,22.00
2023-08-04T02:37:23.297Z,22.00
2023-08-04T02:39:51.220Z,21.90
2023-08-04T02:42:19.114Z,21.80
2023-08-04T02:44:47.102Z,21.80
2023-08-04T02:47:15.114Z,21.80
2023-08-04T02:49:43.087Z,21.80
2023-08-04T02:52:15.744Z,21.70
2023-08-04T02:54:44.088Z,21.60
2023-08-04T02:57:12.180Z,21.50
2023-08-04T02:59:40.065Z,21.40
2023-08-04T03:02:08.657Z,21.30
2023-08-04T03:04:36.564Z,21.30
2023-08-04T03:07:04.631Z,21.30
2023-08-04T03:09:32.464Z,21.20
2023-08-04T03:12:00.463Z,21.30
2023-08-04T03:14:29.551Z,21.32
2023-08-04T03:16:57.622Z,21.34
2023-08-04T03:19:25.602Z,21.40
2023-08-04T03:21:53.469Z,21.40
2023-08-04T03:24:21.687Z,21.30
2023-08-04T03:26:49.641Z,21.30
2023-08-04T03:29:17.496Z,21.32
2023-08-04T03:31:45.734Z,21.30
2023-08-04T03:34:13.878Z,21.30
2023-08-04T03:36:41.755Z,21.30
2023-08-04T03:39:09.681Z,21.30
2023-08-04T03:41:37.488Z,21.30
2023-08-04T03:44:07.012Z,21.40
2023-08-04T03:46:36.616Z,21.40
2023-08-04T03:49:04.511Z,21.44
2023-08-04T03:51:32.502Z,21.30
2023-08-04T03:54:00.418Z,21.30
2023-08-04T03:56:28.259Z,21.30
2023-08-04T03:58:56.219Z,21.30
2023-08-04T04:01:24.243Z,21.40
2023-08-04T04:03:52.242Z,21.50
2023-08-04T04:06:20.183Z,21.70
2023-08-04T04:08:48.017Z,21.80
2023-08-04T04:11:16.047Z,22.00
2023-08-04T04:13:44.216Z,22.20
2023-08-04T04:16:12.276Z,22.30
2023-08-04T04:18:40.350Z,22.50
2023-08-04T04:21:08.013Z,22.60
2023-08-04T04:23:35.984Z,22.84
2023-08-04T04:26:08.267Z,22.98
2023-08-04T04:28:36.370Z,23.00
2023-08-04T04:31:04.514Z,23.30
2023-08-04T04:33:35.341Z,23.52
2023-08-04T04:36:03.249Z,23.84
2023-08-04T04:38:31.109Z,24.20
2023-08-04T04:40:59.807Z,24.42
2023-08-04T04:43:27.953Z,24.62
2023-08-04T04:45:56.301Z,24.88
2023-08-04T04:48:24.956Z,25.26
2023-08-04T04:50:53.111Z,25.10
2023-08-04T04:53:21.158Z,25.48
2023-08-04T04:55:49.202Z,26.00
2023-08-04T04:58:17.128Z,26.40
2023-08-04T05:00:46.199Z,26.78
2023-08-04T05:03:14.341Z,26.74
2023-08-04T05:05:42.481Z,27.10
2023-08-04T05:08:10.432Z,27.00
2023-08-04T05:10:38.275Z,27.08
2023-08-04T05:13:06.280Z,27.02
2023-08-04T05:15:34.226Z,26.74
2023-08-04T05:18:02.148Z,27.10
2023-08-04T05:20:30.116Z,26.96
2023-08-04T05:22:58.023Z,27.28
2023-08-04T05:25:25.912Z,27.52
2023-08-04T05:27:53.871Z,27.70
2023-08-04T05:30:21.983Z,27.62
2023-08-04T05:32:49.903Z,27.96
2023-08-04T05:35:17.997Z,28.20
2023-08-04T05:37:46.084Z,28.46
2023-08-04T05:40:14.130Z,28.80
2023-08-04T05:42:42.352Z,28.74
2023-08-04T05:45:10.640Z,29.20
2023-08-04T05:47:38.586Z,28.90
2023-08-04T05:50:07.203Z,29.38
2023-08-04T05:52:35.106Z,29.12
2023-08-04T05:55:03.077Z,29.46
2023-08-04T05:57:30.991Z,29.80
2023-08-04T05:59:58.956Z,30.16
2023-08-04T06:02:26.992Z,30.30
2023-08-04T06:04:55.005Z,30.64
2023-08-04T06:07:23.078Z,31.00
2023-08-04T06:09:51.107Z,31.02
2023-08-04T06:12:18.948Z,31.42
2023-08-04T06:14:47.087Z,30.82
2023-08-04T06:17:15.118Z,30.46
2023-08-04T06:19:43.441Z,30.66
2023-08-04T06:22:11.552Z,31.56
2023-08-04T06:24:39.663Z,32.08
2023-08-04T06:27:08.779Z,32.42
2023-08-04T06:29:36.669Z,32.70
2023-08-04T06:32:05.607Z,33.18
2023-08-04T06:34:33.514Z,33.28
2023-08-04T06:37:01.415Z,33.50
2023-08-04T06:39:29.652Z,33.68
2023-08-04T06:41:57.636Z,33.98
2023-08-04T06:44:25.737Z,34.12
2023-08-04T06:46:53.688Z,34.30
2023-08-04T06:49:21.693Z,34.40
2023-08-04T06:51:51.120Z,34.28
2023-08-04T06:54:19.558Z,34.36
2023-08-04T06:56:47.665Z,34.40
2023-08-04T06:59:15.695Z,33.90
2023-08-04T07:01:43.685Z,33.52
2023-08-04T07:04:13.425Z,33.74
2023-08-04T07:06:41.698Z,34.00
2023-08-04T07:09:09.758Z,34.30
2023-08-04T07:11:37.722Z,34.30
2023-08-04T07:14:05.753Z,34.66
2023-08-04T07:16:34.272Z,35.10
2023-08-04T07:19:02.225Z,35.50
2023-08-04T07:21:30.155Z,35.50
2023-08-04T07:23:58.309Z,36.00
2023-08-04T07:26:28.517Z,36.08
2023-08-04T07:28:56.373Z,36.24
2023-08-04T07:31:24.246Z,36.18
2023-08-04T07:33:52.205Z,35.82
2023-08-04T07:36:20.242Z,35.92
2023-08-04T07:38:48.113Z,35.54
2023-08-04T07:41:22.809Z,35.50
2023-08-04T07:43:50.813Z,35.56
2023-08-04T07:46:29.765Z,35.94
2023-08-04T07:48:57.923Z,35.78
2023-08-04T07:51:25.869Z,35.96
2023-08-04T07:53:54.011Z,36.30
2023-08-04T07:56:21.947Z,36.38
2023-08-04T07:58:49.962Z,36.44
2023-08-04T08:01:17.953Z,37.06
2023-08-04T08:03:46.221Z,36.82
2023-08-04T08:06:14.335Z,36.52
2023-08-04T08:08:42.297Z,36.10
2023-08-04T08:11:10.620Z,36.20
2023-08-04T08:13:41.343Z,36.20
2023-08-04T08:16:18.321Z,36.36
2023-08-04T08:18:47.445Z,36.66
2023-08-04T08:21:15.350Z,36.48
2023-08-04T08:23:43.343Z,36.68
2023-08-04T08:26:13.608Z,37.18
2023-08-04T08:28:41.521Z,37.46
2023-08-04T08:31:10.730Z,37.52
2023-08-04T08:33:38.853Z,36.80
2023-08-04T08:36:07.783Z,37.12
2023-08-04T08:38:36.014Z,36.98
2023-08-04T08:41:04.072Z,37.22
2023-08-04T08:43:32.100Z,37.60
2023-08-04T08:46:00.550Z,38.46
2023-08-04T08:48:28.622Z,38.04
2023-08-04T08:51:01.325Z,37.28
2023-08-04T08:53:31.444Z,37.70
2023-08-04T08:56:03.961Z,37.80
2023-08-04T08:58:33.290Z,37.66
2023-08-04T09:01:02.060Z,38.06
2023-08-04T09:03:30.005Z,37.96
2023-08-04T09:05:57.867Z,38.40
2023-08-04T09:08:25.715Z,37.80
2023-08-04T09:10:53.910Z,37.62
2023-08-04T09:13:22.380Z,37.88
2023-08-04T09:15:52.100Z,38.32
2023-08-04T09:18:29.856Z,38.50
2023-08-04T09:21:11.046Z,38.24
2023-08-04T09:23:42.400Z,38.80
2023-08-04T09:26:10.401Z,39.18
2023-08-04T09:28:38.537Z,39.46
2023-08-04T09:31:10.874Z,39.64
2023-08-04T09:33:42.705Z,40.00
2023-08-04T09:36:12.375Z,39.42
2023-08-04T09:38:40.767Z,39.72
2023-08-04T09:41:15.753Z,40.34
2023-08-04T09:43:49.723Z,40.76
2023-08-04T09:46:21.053Z,40.30
2023-08-04T09:48:49.216Z,40.42
2023-08-04T09:51:20.136Z,40.52
2023-08-04T09:53:51.090Z,39.70
2023-08-04T09:56:19.687Z,40.02
2023-08-04T09:58:48.680Z,40.28
2023-08-04T10:01:17.914Z,40.20
2023-08-04T10:03:50.540Z,39.82
2023-08-04T10:06:18.540Z,39.34
2023-08-04T10:08:46.815Z,38.88
2023-08-04T10:11:14.794Z,39.60
2023-08-04T10:13:47.046Z,39.72
2023-08-04T10:16:15.771Z,40.38
2023-08-04T10:18:53.946Z,40.76
2023-08-04T10:21:23.410Z,41.02
2023-08-04T10:23:52.899Z,41.30
2023-08-04T10:26:21.521Z,41.28
2023-08-04T10:29:03.107Z,40.54
2023-08-04T10:31:43.158Z,40.94
2023-08-04T10:34:27.704Z,40.74
2023-08-04T10:37:10.444Z,40.78
2023-08-04T10:39:39.410Z,41.10
2023-08-04T10:42:10.443Z,41.64
2023-08-04T10:44:57.710Z,40.56
2023-08-04T10:48:08.908Z,40.26
2023-08-04T10:50:36.489Z,40.14
2023-08-04T10:53:04.448Z,40.28
2023-08-04T10:55:34.248Z,40.54
2023-08-04T10:58:03.446Z,41.00
2023-08-04T11:00:31.352Z,41.12
2023-08-04T11:02:59.311Z,40.52
2023-08-04T11:05:27.440Z,40.44
2023-08-04T11:07:55.476Z,40.50
2023-08-04T11:10:24.903Z,40.14
2023-08-04T11:12:53.812Z,39.76
2023-08-04T11:15:21.816Z,39.52
2023-08-04T11:17:50.044Z,40.06
2023-08-04T11:20:31.883Z,40.76
2023-08-04T11:23:02.270Z,40.40
2023-08-04T11:25:33.652Z,40.26
2023-08-04T11:28:02.974Z,40.34
2023-08-04T11:30:32.259Z,40.46
2023-08-04T11:33:00.203Z,40.34
2023-08-04T11:35:30.114Z,40.12
2023-08-04T11:37:58.505Z,40.58
2023-08-04T11:40:26.420Z,41.00
2023-08-04T11:42:54.433Z,41.30
2023-08-04T11:45:22.718Z,41.36
2023-08-04T11:47:50.931Z,41.08
2023-08-04T11:50:19.101Z,41.48
2023-08-04T11:52:47.662Z,41.72
2023-08-04T11:55:15.689Z,41.30
2023-08-04T11:57:53.523Z,41.40
2023-08-04T12:00:34.157Z,41.16
2023-08-04T12:03:02.695Z,41.34
2023-08-04T12:05:31.965Z,41.52
2023-08-04T12:08:00.728Z,42.10
2023-08-04T12:10:29.831Z,42.02
2023-08-04T12:12:57.779Z,41.58
2023-08-04T12:15:26.015Z,41.22
2023-08-04T12:17:54.075Z,40.72
2023-08-04T12:20:21.969Z,41.14
2023-08-04T12:22:49.968Z,40.74
2023-08-04T12:25:17.920Z,41.02
2023-08-04T12:27:45.911Z,40.68
2023-08-04T12:30:14.991Z,40.72
2023-08-04T12:32:42.972Z,40.88
2023-08-04T12:35:10.995Z,41.04
2023-08-04T12:37:39.003Z,41.10
2023-08-04T12:40:07.462Z,41.12
2023-08-04T12:42:36.334Z,41.40
2023-08-04T12:45:04.686Z,41.82
2023-08-04T12:47:32.774Z,41.80
2023-08-04T12:50:00.777Z,41.74
2023-08-04T12:52:28.871Z,40.80
2023-08-04T12:54:56.687Z,40.58
2023-08-04T12:57:24.588Z,40.24
2023-08-04T12:59:52.525Z,40.18
2023-08-04T13:02:20.560Z,40.76
2023-08-04T13:04:49.017Z,40.82
2023-08-04T13:07:17.061Z,41.00
2023-08-04T13:09:44.923Z,40.70
2023-08-04T13:12:12.982Z,40.76
2023-08-04T13:14:40.820Z,41.66
2023-08-04T13:17:08.824Z,41.86
2023-08-04T13:19:36.766Z,41.10
2023-08-04T13:22:05.168Z,41.10
2023-08-04T13:24:33.151Z,41.10
2023-08-04T13:27:01.162Z,40.60
2023-08-04T13:29:29.105Z,39.84
2023-08-04T13:31:57.012Z,39.70
2023-08-04T13:34:25.059Z,39.88
2023-08-04T13:36:52.990Z,40.08
2023-08-04T13:39:21.073Z,40.20
2023-08-04T13:41:49.366Z,40.32
2023-08-04T13:44:17.705Z,40.50
2023-08-04T13:46:45.666Z,40.36
2023-08-04T13:49:13.746Z,39.90
2023-08-04T13:51:41.748Z,39.66
2023-08-04T13:54:09.656Z,39.50
2023-08-04T13:56:40.481Z,39.96
2023-08-04T13:59:09.043Z,40.12
2023-08-04T14:01:37.187Z,39.86
2023-08-04T14:04:05.538Z,39.90
2023-08-04T14:06:35.639Z,40.02
2023-08-04T14:09:03.690Z,40.36
2023-08-04T14:11:31.749Z,40.22
2023-08-04T14:13:59.744Z,40.52
2023-08-04T14:16:27.704Z,40.60
2023-08-04T14:18:55.615Z,40.64
2023-08-04T14:21:23.787Z,40.26
2023-08-04T14:23:53.785Z,40.00
2023-08-04T14:26:21.699Z,39.78
2023-08-04T14:28:49.722Z,39.90
2023-08-04T14:31:17.903Z,39.88
2023-08-04T14:33:46.063Z,40.08
2023-08-04T14:36:13.976Z,39.80
2023-08-04T14:38:41.876Z,40.00
2023-08-04T14:41:09.774Z,40.38
2023-08-04T14:43:39.658Z,40.30
2023-08-04T14:46:11.521Z,40.40
2023-08-04T14:48:39.509Z,40.62
2023-08-04T14:51:13.514Z,40.80
2023-08-04T14:53:41.485Z,40.90
2023-08-04T14:56:09.532Z,40.88
2023-08-04T14:58:37.398Z,40.64
2023-08-04T15:01:09.125Z,40.14
2023-08-04T15:03:41.302Z,39.80
2023-08-04T15:06:15.773Z,39.90
2023-08-04T15:08:44.298Z,39.86
2023-08-04T15:11:12.662Z,39.98
2023-08-04T15:13:40.771Z,40.06
2023-08-04T15:16:09.351Z,40.00
2023-08-04T15:18:37.550Z,39.80
2023-08-04T15:21:05.669Z,39.70
2023-08-04T15:23:34.101Z,39.76
2023-08-04T15:26:02.128Z,39.70
2023-08-04T15:28:30.084Z,39.50
2023-08-04T15:31:04.209Z,39.60
2023-08-04T15:33:33.272Z,39.40
2023-08-04T15:36:02.376Z,39.12
2023-08-04T15:38:30.370Z,39.06
2023-08-04T15:41:01.244Z,39.20
2023-08-04T15:43:29.098Z,39.08
2023-08-04T15:45:57.141Z,38.92
2023-08-04T15:48:25.263Z,38.98
2023-08-04T15:50:53.372Z,38.70
2023-08-04T15:53:21.283Z,38.52
2023-08-04T15:55:49.246Z,38.60
2023-08-04T15:58:17.079Z,38.42
2023-08-04T16:00:45.196Z,38.20
2023-08-04T16:03:13.021Z,38.10
2023-08-04T16:05:41.552Z,38.00
2023-08-04T16:08:09.478Z,38.00
2023-08-04T16:10:37.532Z,37.88
2023-08-04T16:13:05.580Z,37.82
2023-08-04T16:15:33.594Z,37.60
2023-08-04T16:18:01.638Z,37.50
2023-08-04T16:20:29.841Z,37.40
2023-08-04T16:23:00.140Z,37.30
2023-08-04T16:25:29.438Z,37.30
2023-08-04T16:27:57.406Z,37.20
2023-08-04T16:30:25.301Z,37.20
2023-08-04T16:32:53.384Z,37.10
2023-08-04T16:35:22.641Z,37.00
2023-08-04T16:37:50.562Z,36.90
2023-08-04T16:40:18.488Z,36.78
2023-08-04T16:42:46.769Z,36.70
2023-08-04T16:45:14.804Z,36.60
2023-08-04T16:47:42.773Z,36.60
2023-08-04T16:50:10.760Z,36.42
2023-08-04T16:52:38.623Z,36.20
2023-08-04T16:55:06.828Z,36.00
2023-08-04T16:57:34.681Z,35.90
2023-08-04T17:00:02.661Z,35.70
2023-08-04T17:02:30.714Z,35.68
2023-08-04T17:04:59.241Z,35.56
2023-08-04T17:07:27.340Z,35.34
2023-08-04T17:09:57.882Z,35.20
2023-08-04T17:12:25.905Z,35.00
2023-08-04T17:14:54.132Z,34.86
2023-08-04T17:17:22.198Z,34.68
2023-08-04T17:19:50.129Z,34.56
2023-08-04T17:22:18.114Z,34.40
2023-08-04T17:24:45.994Z,34.40
2023-08-04T17:27:13.916Z,34.30
2023-08-04T17:29:41.899Z,34.20
2023-08-04T17:32:10.554Z,34.10
2023-08-04T17:34:39.640Z,34.00
2023-08-04T17:37:07.611Z,33.90
2023-08-04T17:39:35.508Z,33.80
2023-08-04T17:42:04.056Z,33.76
2023-08-04T17:44:32.258Z,33.68
2023-08-04T17:47:00.200Z,33.60
2023-08-04T17:49:28.056Z,33.50
2023-08-04T17:51:55.896Z,33.36
2023-08-04T17:54:23.767Z,33.30
2023-08-04T17:56:51.966Z,33.26
2023-08-04T17:59:19.973Z,33.20
2023-08-04T18:01:47.861Z,33.10
2023-08-04T18:04:16.640Z,33.00
2023-08-04T18:06:44.662Z,32.90
2023-08-04T18:09:12.696Z,32.80
2023-08-04T18:11:40.653Z,32.80
2023-08-04T18:14:08.549Z,32.70
2023-08-04T18:16:36.514Z,32.60
2023-08-04T18:19:04.524Z,32.50
2023-08-04T18:21:32.458Z,32.50
2023-08-04T18:24:00.654Z,32.40
2023-08-04T18:26:28.495Z,32.30
2023-08-04T18:28:56.686Z,32.20
2023-08-04T18:31:24.679Z,32.20
2023-08-04T18:33:52.658Z,32.00
2023-08-04T18:36:22.723Z,31.98
2023-08-04T18:38:50.746Z,31.90
2023-08-04T18:41:18.578Z,31.80
2023-08-04T18:43:46.498Z,31.70
2023-08-04T18:46:14.728Z,31.60
2023-08-04T18:48:42.690Z,31.50
2023-08-04T18:51:10.637Z,31.50
2023-08-04T18:53:40.414Z,31.50
2023-08-04T18:56:09.141Z,31.38
2023-08-04T18:58:37.106Z,31.40
2023-08-04T19:01:05.277Z,31.40
2023-08-04T19:03:35.724Z,31.20
2023-08-04T19:06:06.004Z,31.12
2023-08-04T19:08:34.201Z,31.10
2023-08-04T19:11:02.117Z,31.10
2023-08-04T19:13:30.381Z,31.10
2023-08-04T19:15:58.805Z,31.00
2023-08-04T19:18:26.934Z,30.92
2023-08-04T19:20:54.968Z,30.90
2023-08-04T19:23:23.029Z,30.90
2023-08-04T19:25:50.971Z,30.90
2023-08-04T19:28:18.813Z,30.80
2023-08-04T19:30:47.246Z,30.80
2023-08-04T19:33:15.324Z,30.80
2023-08-04T19:35:43.226Z,30.72
2023-08-04T19:38:11.213Z,30.70
2023-08-04T19:40:39.265Z,30.60
2023-08-04T19:43:08.582Z,30.60
2023-08-04T19:45:36.691Z,30.60
2023-08-04T19:48:04.711Z,30.58
2023-08-04T19:50:32.661Z,30.50
2023-08-04T19:53:00.673Z,30.40
2023-08-04T19:55:42.027Z,30.30
2023-08-04T19:58:12.279Z,30.30
2023-08-04T20:00:42.919Z,30.20
2023-08-04T20:03:11.042Z,30.20
2023-08-04T20:05:39.764Z,30.20
2023-08-04T20:08:07.686Z,30.20
2023-08-04T20:10:36.322Z,30.20
2023-08-04T20:13:04.996Z,30.20
2023-08-04T20:15:33.857Z,30.20
2023-08-04T20:18:02.763Z,30.20
2023-08-04T20:20:31.948Z,30.20
2023-08-04T20:22:59.934Z,30.20
2023-08-04T20:25:28.249Z,30.10
2023-08-04T20:27:56.659Z,30.10
2023-08-04T20:30:27.734Z,30.10
2023-08-04T20:32:56.266Z,30.10
2023-08-04T20:35:24.320Z,30.08
2023-08-04T20:37:53.240Z,30.00
2023-08-04T20:40:21.113Z,29.90
2023-08-04T20:42:49.210Z,29.90
2023-08-04T20:45:18.501Z,29.80
2023-08-04T20:47:47.256Z,29.80
2023-08-04T20:50:15.992Z,29.76
2023-08-04T20:52:44.089Z,29.66
2023-08-04T20:55:12.357Z,29.60
2023-08-04T20:57:40.510Z,29.60
2023-08-04T21:00:10.251Z,29.56
2023-08-04T21:02:39.187Z,29.50
2023-08-04T21:05:08.094Z,29.50
2023-08-04T21:07:36.998Z,29.40
2023-08-04T21:10:05.480Z,29.32
2023-08-04T21:12:34.265Z,29.12
2023-08-04T21:15:04.656Z,29.00
2023-08-04T21:17:33.328Z,28.84
2023-08-04T21:20:04.397Z,28.90
2023-08-04T21:22:32.973Z,28.82
2023-08-04T21:25:01.296Z,28.90
2023-08-04T21:27:29.351Z,28.84
2023-08-04T21:29:57.999Z,28.80
2023-08-04T21:32:26.494Z,28.80
2023-08-04T21:34:55.522Z,28.80
2023-08-04T21:37:24.320Z,28.80
2023-08-04T21:39:53.767Z,28.70
2023-08-04T21:42:22.738Z,28.62
2023-08-04T21:44:54.130Z,28.60
2023-08-04T21:47:22.180Z,28.60
2023-08-04T21:49:50.763Z,28.60
2023-08-04T21:52:19.812Z,28.60
2023-08-04T21:54:47.870Z,28.60
2023-08-04T21:57:17.311Z,28.50
2023-08-04T21:59:45.723Z,28.56
2023-08-04T22:02:15.127Z,28.50
2023-08-04T22:04:44.303Z,28.50
2023-08-04T22:07:12.496Z,28.40
2023-08-04T22:09:40.491Z,28.50
2023-08-04T22:12:09.722Z,28.50
2023-08-04T22:14:37.571Z,28.50
2023-08-04T22:17:05.575Z,28.50
2023-08-04T22:19:33.574Z,28.50
2023-08-04T22:22:01.456Z,28.50
2023-08-04T22:24:29.336Z,28.60
2023-08-04T22:26:57.209Z,28.40
2023-08-04T22:29:25.123Z,28.50
2023-08-04T22:31:52.965Z,28.54
2023-08-04T22:34:20.835Z,28.58
2023-08-04T22:36:49.217Z,28.60
2023-08-04T22:39:17.673Z,28.58
2023-08-04T22:41:45.606Z,28.64
2023-08-04T22:44:13.559Z,28.60
2023-08-04T22:46:41.490Z,28.60
2023-08-04T22:49:09.435Z,28.50
2023-08-04T22:51:37.402Z,28.40
2023-08-04T22:54:07.233Z,28.50
2023-08-04T22:56:38.657Z,28.34
2023-08-04T22:59:06.537Z,28.30
2023-08-04T23:01:35.443Z,28.22
2023-08-04T23:04:04.974Z,28.20
2023-08-04T23:06:33.163Z,28.20
2023-08-04T23:09:04.925Z,28.10
2023-08-04T23:11:32.893Z,28.10
2023-08-04T23:14:00.795Z,28.20
2023-08-04T23:16:29.062Z,28.10
2023-08-04T23:18:56.913Z,28.06
2023-08-04T23:21:24.903Z,27.96
2023-08-04T23:23:52.784Z,27.90
2023-08-04T23:26:20.846Z,27.90
2023-08-04T23:28:48.774Z,27.90
2023-08-04T23:31:17.027Z,27.80
2023-08-04T23:33:44.975Z,27.78
2023-08-04T23:36:12.875Z,27.70
2023-08-04T23:38:40.859Z,27.60
2023-08-04T23:41:08.769Z,27.50
2023-08-04T23:43:36.596Z,27.54
2023-08-04T23:46:04.519Z,27.50
2023-08-04T23:48:32.650Z,27.42
2023-08-04T23:51:00.664Z,27.40
2023-08-04T23:53:28.443Z,27.40
2023-08-04T23:55:56.461Z,27.34
2023-08-04T23:58:24.404Z,27.30
